KAXV/AXV METAR and TAF weather

Enter ICAO airport designator
Station Type Date Time Source
KAXV METAR 2023/02/04 01:55 UTC NOAA

KAXV 040155Z AUTO 00000KT 10SM CLR M11/M15 A3054 RMK AO2


Station Type Date Time Source
KAXV Decoded METAR 2023/02/04 01:55 UTC NOAA

Station name not available
Feb 03, 2023 - 08:55 PM EST / 2023.02.04 0155 UTC
Wind: Calm:0
Visibility: 10 mile(s):0
Sky conditions: clear
Temperature: 12 F (-11 C)
Dew Point: 5 F (-15 C)
Relative Humidity: 72%
Pressure (altimeter): 30.54 in. Hg (1034 hPa)
ob: KAXV 040155Z AUTO 00000KT 10SM CLR M11/M15 A3054 RMK AO2
cycle: 2

Station Type Date Time Source
KAXV TAF UTC NOAA

Error!

Example: see airport list